Time;durP1;ratioP1;P1;durP2;ratioP2;P2;SDS_P1;SDS_P2;PMS_P1;PMS_P2;Temp;Humidity;BMP_temperature;BMP_pressure;BME280_temperature;BME280_humidity;BME280_pressure;Samples;Min_cycle;Max_cycle;Signal;HPM_P1;HPM_P2
2021/06/24 00:00:52;;;;;;;28.05;8.60;;;692.00;1664.00;;;;;;5073886;28;20052;-62
2021/06/24 00:03:19;;;;;;;36.50;9.50;;;692.00;1664.00;;;;;;5073877;28;20032;-62
2021/06/24 00:05:45;;;;;;;22.00;7.78;;;692.00;1689.60;;;;;;5073384;28;20412;-61
2021/06/24 00:08:12;;;;;;;27.02;8.23;;;692.00;1689.60;;;;;;5073740;28;20095;-62
2021/06/24 00:10:40;;;;;;;30.58;8.70;;;692.00;1689.60;;;;;;5073503;28;20112;-61
2021/06/24 00:13:18;;;;;;;29.58;8.00;;;691.90;1689.60;;;;;;5073744;28;20508;-62
2021/06/24 00:15:44;;;;;;;28.73;8.27;;;691.90;1715.20;;;;;;5073556;28;20028;-62
2021/06/24 00:18:10;;;;;;;28.02;8.65;;;691.90;1715.20;;;;;;5073681;28;20097;-62
2021/06/24 00:20:37;;;;;;;27.83;7.72;;;691.90;1715.20;;;;;;5073712;28;20023;-62
2021/06/24 00:23:04;;;;;;;33.47;8.57;;;691.90;1715.20;;;;;;5073425;28;20133;-61
2021/06/24 00:25:30;;;;;;;21.70;7.78;;;691.90;1715.20;;;;;;5072911;28;20024;-63
2021/06/24 00:27:56;;;;;;;29.60;8.63;;;691.90;1689.60;;;;;;5073567;28;20032;-62
2021/06/24 00:30:23;;;;;;;22.90;7.45;;;691.90;1689.60;;;;;;5073371;28;20021;-62
2021/06/24 00:32:49;;;;;;;23.73;7.05;;;691.90;1689.60;;;;;;5073386;28;20028;-61
2021/06/24 00:35:14;;;;;;;32.60;7.88;;;691.90;1689.60;;;;;;5073563;28;20428;-62
2021/06/24 00:37:42;;;;;;;30.95;7.40;;;691.90;1664.00;;;;;;5073346;28;20029;-61
2021/06/24 00:40:11;;;;;;;32.63;7.40;;;691.80;1638.40;;;;;;5073371;28;20069;-63
2021/06/24 00:42:37;;;;;;;36.85;7.38;;;691.80;1638.40;;;;;;5076009;28;20029;-62
2021/06/24 00:45:05;;;;;;;28.80;7.20;;;691.70;1638.40;;;;;;5077013;28;20027;-62
2021/06/24 00:47:31;;;;;;;23.60;7.65;;;691.70;1638.40;;;;;;5077452;28;20474;-62
2021/06/24 00:49:57;;;;;;;27.58;7.18;;;691.70;1638.40;;;;;;5077504;28;20051;-62
2021/06/24 00:52:22;;;;;;;25.17;6.38;;;691.60;1612.80;;;;;;5077063;28;20417;-62
2021/06/24 00:54:48;;;;;;;23.05;5.88;;;691.60;1612.80;;;;;;5077200;28;20561;-62
2021/06/24 00:57:14;;;;;;;37.63;6.78;;;691.60;1612.80;;;;;;5077101;28;20024;-62
2021/06/24 00:59:40;;;;;;;22.98;6.95;;;691.50;1612.80;;;;;;5076919;28;20365;-62
2021/06/24 01:02:08;;;;;;;31.38;6.95;;;691.50;1612.80;;;;;;5077021;28;20020;-63
2021/06/24 01:04:35;;;;;;;28.30;6.85;;;691.50;1612.80;;;;;;5076835;28;20462;-62
2021/06/24 01:07:02;;;;;;;17.30;5.50;;;691.50;1612.80;;;;;;5076815;28;20501;-62
2021/06/24 01:09:28;;;;;;;17.58;6.13;;;691.50;1587.20;;;;;;5076686;28;20500;-62
2021/06/24 01:11:54;;;;;;;29.52;7.55;;;691.40;1587.20;;;;;;5076800;28;20021;-62
2021/06/24 01:14:23;;;;;;;23.25;7.47;;;691.40;1612.80;;;;;;5076561;28;20017;-62
2021/06/24 01:16:53;;;;;;;23.83;5.80;;;691.40;1638.40;;;;;;5076675;28;20382;-63
2021/06/24 01:19:19;;;;;;;23.40;6.85;;;691.40;1664.00;;;;;;5076590;28;20454;-62
2021/06/24 01:21:46;;;;;;;23.42;7.18;;;691.40;1664.00;;;;;;5076485;28;20090;-63
2021/06/24 01:24:12;;;;;;;25.88;7.00;;;691.40;1664.00;;;;;;5076549;28;20032;-62
2021/06/24 01:26:40;;;;;;;25.85;6.90;;;691.40;1664.00;;;;;;5076206;28;20037;-62
2021/06/24 01:29:06;;;;;;;22.30;6.43;;;691.30;1638.40;;;;;;5076308;28;20039;-63
2021/06/24 01:31:32;;;;;;;15.07;6.07;;;691.30;1638.40;;;;;;5076347;28;20332;-62
2021/06/24 01:33:58;;;;;;;20.58;6.18;;;691.30;1638.40;;;;;;5076451;28;20031;-62
2021/06/24 01:36:24;;;;;;;26.10;6.70;;;691.30;1612.80;;;;;;5076242;28;20371;-62
2021/06/24 01:38:50;;;;;;;25.20;6.50;;;691.30;1612.80;;;;;;5076370;28;20024;-62
2021/06/24 01:41:16;;;;;;;24.35;7.35;;;691.30;1612.80;;;;;;5075961;28;20498;-62
2021/06/24 01:43:42;;;;;;;21.85;6.38;;;691.30;1612.80;;;;;;5076239;28;20020;-61
2021/06/24 01:46:08;;;;;;;20.02;6.25;;;691.30;1612.80;;;;;;5076209;28;20393;-62
2021/06/24 01:48:34;;;;;;;30.55;6.47;;;691.20;1612.80;;;;;;5076043;28;20017;-61
2021/06/24 01:51:03;;;;;;;29.05;6.47;;;691.20;1612.80;;;;;;5076101;28;20031;-62
2021/06/24 01:53:29;;;;;;;27.88;6.53;;;691.30;1612.80;;;;;;5075931;28;20027;-62
2021/06/24 01:55:56;;;;;;;24.10;6.13;;;691.30;1612.80;;;;;;5075810;28;20029;-62
2021/06/24 01:58:24;;;;;;;23.42;6.35;;;691.20;1612.80;;;;;;5075807;28;20031;-62
2021/06/24 02:00:53;;;;;;;22.27;6.80;;;691.20;1612.80;;;;;;5075663;28;20028;-62
2021/06/24 02:03:19;;;;;;;18.33;6.28;;;666.50;1612.80;;;;;;5075856;28;20420;-62
2021/06/24 02:05:49;;;;;;;22.70;7.65;;;666.50;1612.80;;;;;;5091201;28;20516;-62
2021/06/24 02:08:25;;;;;;;30.05;6.88;;;666.50;1612.80;;;;;;5075808;28;20056;-63
2021/06/24 02:10:52;;;;;;;23.75;7.03;;;666.50;1587.20;;;;;;5075435;28;20056;-62
2021/06/24 02:13:18;;;;;;;21.20;6.68;;;666.50;1587.20;;;;;;5075951;28;20066;-62
2021/06/24 02:15:44;;;;;;;28.45;6.30;;;666.50;1587.20;;;;;;5075574;28;20020;-62
2021/06/24 02:18:10;;;;;;;25.50;7.53;;;666.50;1587.20;;;;;;5075658;28;20028;-63
2021/06/24 02:20:37;;;;;;;27.80;6.72;;;666.50;1561.60;;;;;;5075642;28;20032;-63
2021/06/24 02:23:03;;;;;;;29.27;7.35;;;666.40;1561.60;;;;;;5075265;28;20044;-61
2021/06/24 02:25:29;;;;;;;27.40;7.85;;;666.40;1587.20;;;;;;5075452;28;20098;-62
2021/06/24 02:27:55;;;;;;;22.83;6.53;;;666.40;1587.20;;;;;;5075401;28;20474;-61
2021/06/24 02:30:22;;;;;;;29.05;6.53;;;666.40;1587.20;;;;;;5090817;28;20085;-62
2021/06/24 02:32:49;;;;;;;30.83;7.35;;;666.40;1587.20;;;;;;5074307;28;20028;-62
2021/06/24 02:35:16;;;;;;;33.95;5.75;;;666.40;1561.60;;;;;;5075250;28;20021;-63
2021/06/24 02:37:43;;;;;;;25.08;6.35;;;666.40;1536.00;;;;;;5075012;28;20025;-62
2021/06/24 02:40:21;;;;;;;23.70;5.75;;;666.30;1510.40;;;;;;5075090;28;20107;-62
2021/06/24 02:42:47;;;;;;;22.08;5.43;;;666.30;1510.40;;;;;;5073747;28;20428;-62
2021/06/24 02:45:13;;;;;;;28.50;6.78;;;666.30;1510.40;;;;;;5074970;28;20029;-62
2021/06/24 02:47:40;;;;;;;22.80;5.22;;;666.30;1510.40;;;;;;5075197;28;20450;-62
2021/06/24 02:50:07;;;;;;;18.50;5.18;;;666.30;1510.40;;;;;;5074511;28;20016;-62
2021/06/24 02:52:33;;;;;;;19.02;5.18;;;666.30;1536.00;;;;;;5074294;28;20031;-62
2021/06/24 02:54:59;;;;;;;17.40;4.68;;;666.30;1536.00;;;;;;5074472;28;20370;-62
2021/06/24 02:57:25;;;;;;;21.92;5.85;;;666.30;1536.00;;;;;;5074254;28;20017;-62
2021/06/24 02:59:51;;;;;;;24.75;5.72;;;666.30;1536.00;;;;;;5073842;28;20462;-62
2021/06/24 03:02:16;;;;;;;25.05;7.13;;;666.30;1536.00;;;;;;5073983;28;20024;-62
2021/06/24 03:04:42;;;;;;;20.65;5.32;;;666.30;1536.00;;;;;;5073859;28;20024;-61
2021/06/24 03:07:08;;;;;;;25.77;4.85;;;666.30;1536.00;;;;;;5074553;28;20068;-61
2021/06/24 03:09:34;;;;;;;23.17;5.30;;;666.30;1536.00;;;;;;5074542;28;20047;-61
2021/06/24 03:11:59;;;;;;;19.52;5.47;;;666.30;1536.00;;;;;;5074522;28;20378;-62
2021/06/24 03:14:26;;;;;;;22.60;4.97;;;666.30;1536.00;;;;;;5073950;28;20120;-62
2021/06/24 03:16:52;;;;;;;40.10;7.28;;;666.30;1536.00;;;;;;5073773;28;20028;-62
2021/06/24 03:19:19;;;;;;;19.17;4.63;;;666.30;1536.00;;;;;;5074390;28;20024;-61
2021/06/24 03:21:45;;;;;;;23.95;4.93;;;666.30;1536.00;;;;;;5074006;28;20048;-62
2021/06/24 03:24:11;;;;;;;18.65;5.25;;;666.30;1536.00;;;;;;5074458;28;20028;-62
2021/06/24 03:26:36;;;;;;;22.90;5.63;;;666.40;1536.00;;;;;;5074025;28;20378;-62
2021/06/24 03:29:03;;;;;;;21.30;5.68;;;666.40;1510.40;;;;;;5074157;28;20020;-62
2021/06/24 03:31:29;;;;;;;24.42;5.90;;;666.40;1510.40;;;;;;5074270;28;20089;-62
2021/06/24 03:33:55;;;;;;;19.75;5.05;;;666.50;1510.40;;;;;;5074403;28;20028;-62
2021/06/24 03:36:21;;;;;;;17.95;5.95;;;666.50;1510.40;;;;;;5074144;28;20485;-62
2021/06/24 03:38:48;;;;;;;28.15;5.57;;;691.20;1510.40;;;;;;5074068;28;20069;-62
2021/06/24 03:41:23;;;;;;;23.88;5.32;;;666.50;1510.40;;;;;;5074107;28;20032;-63
2021/06/24 03:43:50;;;;;;;12.93;5.28;;;691.20;1510.40;;;;;;5074088;28;20032;-61
2021/06/24 03:46:16;;;;;;;30.10;5.85;;;691.20;1510.40;;;;;;5073918;28;20406;-62
2021/06/24 03:48:41;;;;;;;30.58;5.78;;;691.20;1510.40;;;;;;5073717;28;20362;-62
2021/06/24 03:51:07;;;;;;;25.40;6.70;;;691.20;1510.40;;;;;;5073976;28;20025;-62
2021/06/24 03:53:34;;;;;;;22.40;5.13;;;691.20;1510.40;;;;;;5073871;28;20021;-63
2021/06/24 03:56:00;;;;;;;20.92;5.68;;;691.20;1510.40;;;;;;5073671;28;20027;-62
2021/06/24 03:58:26;;;;;;;22.73;4.97;;;691.20;1536.00;;;;;;5073799;28;20455;-62
2021/06/24 04:00:53;;;;;;;30.58;6.10;;;691.20;1536.00;;;;;;5073960;28;20035;-63
2021/06/24 04:03:18;;;;;;;30.42;5.82;;;691.20;1536.00;;;;;;5073728;28;20070;-62
2021/06/24 04:05:44;;;;;;;25.13;6.00;;;691.20;1536.00;;;;;;5073800;28;20036;-62
2021/06/24 04:08:10;;;;;;;27.63;5.32;;;691.20;1510.40;;;;;;5073828;28;20063;-62
2021/06/24 04:10:38;;;;;;;23.70;5.72;;;691.20;1510.40;;;;;;5089043;28;20562;-62
2021/06/24 04:13:05;;;;;;;19.98;5.88;;;691.20;1510.40;;;;;;5073845;28;20360;-62
2021/06/24 04:15:32;;;;;;;27.92;6.43;;;691.30;1510.40;;;;;;5073686;28;20497;-62
2021/06/24 04:18:00;;;;;;;27.33;5.78;;;691.30;1510.40;;;;;;5076255;28;20040;-62
2021/06/24 04:20:26;;;;;;;37.88;5.90;;;691.30;1510.40;;;;;;5077878;28;20029;-62
2021/06/24 04:22:52;;;;;;;36.70;5.90;;;691.30;1510.40;;;;;;5077402;28;20052;-62
2021/06/24 04:25:18;;;;;;;32.42;7.15;;;691.40;1510.40;;;;;;5077549;28;20088;-62
2021/06/24 04:27:45;;;;;;;33.72;5.95;;;691.50;1510.40;;;;;;5077746;28;20036;-62
2021/06/24 04:30:12;;;;;;;22.63;4.82;;;691.60;1484.80;;;;;;5077594;28;20081;-62
2021/06/24 04:32:38;;;;;;;24.20;5.40;;;691.70;1484.80;;;;;;5077657;28;20032;-61
2021/06/24 04:35:05;;;;;;;21.83;4.57;;;691.70;1484.80;;;;;;5077486;28;20025;-62
2021/06/24 04:37:31;;;;;;;22.10;5.30;;;691.80;1484.80;;;;;;5077463;28;20111;-63
2021/06/24 04:39:57;;;;;;;15.70;4.70;;;691.90;1459.20;;;;;;5077338;28;20095;-62
2021/06/24 04:42:23;;;;;;;19.23;4.85;;;692.00;1459.20;;;;;;5077540;28;20175;-62
2021/06/24 04:44:49;;;;;;;18.52;5.00;;;692.10;1459.20;;;;;;5077475;28;20086;-62
2021/06/24 04:47:15;;;;;;;23.48;5.55;;;716.80;1484.80;;;;;;5077761;28;20409;-62
2021/06/24 04:49:41;;;;;;;19.42;5.38;;;716.90;1459.20;;;;;;5077461;28;20029;-61
2021/06/24 04:52:08;;;;;;;21.70;5.53;;;716.90;1459.20;;;;;;5077098;28;20462;-62
2021/06/24 04:54:34;;;;;;;21.65;5.40;;;717.10;1459.20;;;;;;5077028;28;20056;-63
2021/06/24 04:56:59;;;;;;;21.55;5.63;;;717.20;1433.60;;;;;;5076989;28;20039;-63
2021/06/24 04:59:25;;;;;;;25.55;5.68;;;717.30;1433.60;;;;;;5077169;28;20028;-63
2021/06/24 05:01:51;;;;;;;21.20;5.32;;;717.30;1433.60;;;;;;5077078;28;20430;-67
2021/06/24 05:04:17;;;;;;;21.70;6.30;;;717.30;1433.60;;;;;;5076926;28;20362;-67
2021/06/24 05:06:43;;;;;;;24.95;5.10;;;717.30;1433.60;;;;;;5076782;28;20028;-67
2021/06/24 05:09:09;;;;;;;18.63;5.30;;;717.40;1433.60;;;;;;5076769;28;20020;-67
2021/06/24 05:11:35;;;;;;;28.25;5.97;;;717.40;1433.60;;;;;;5076703;28;20027;-67
2021/06/24 05:14:01;;;;;;;24.00;5.90;;;717.50;1433.60;;;;;;5076583;28;20025;-67
2021/06/24 05:16:26;;;;;;;26.85;5.93;;;717.50;1433.60;;;;;;5076659;28;20082;-62
2021/06/24 05:18:52;;;;;;;17.65;4.80;;;717.60;1408.00;;;;;;5076708;28;20020;-63
2021/06/24 05:21:18;;;;;;;17.15;6.10;;;717.60;1408.00;;;;;;5076487;28;20393;-63
2021/06/24 05:23:44;;;;;;;22.00;5.28;;;742.40;1433.60;;;;;;5076876;28;20458;-67
2021/06/24 05:26:10;;;;;;;22.73;5.80;;;742.50;1408.00;;;;;;5076509;28;20036;-66
2021/06/24 05:28:36;;;;;;;16.63;5.55;;;742.60;1408.00;;;;;;5076540;28;20027;-67
2021/06/24 05:31:02;;;;;;;28.90;5.68;;;742.70;1408.00;;;;;;5076467;28;20024;-65
2021/06/24 05:33:28;;;;;;;24.60;5.20;;;742.90;1408.00;;;;;;5076441;28;20024;-66
2021/06/24 05:35:54;;;;;;;24.67;5.57;;;743.00;1382.40;;;;;;5076495;28;20067;-66
2021/06/24 05:38:19;;;;;;;22.67;5.55;;;743.10;1382.40;;;;;;5076926;28;20039;-63
2021/06/24 05:40:48;;;;;;;29.50;6.47;;;743.20;1356.80;;;;;;5076198;28;20017;-67
2021/06/24 05:43:15;;;;;;;28.83;6.85;;;743.30;1356.80;;;;;;5076320;28;20058;-62
2021/06/24 05:45:41;;;;;;;14.70;4.93;;;768.00;1356.80;;;;;;5076025;28;20111;-62
2021/06/24 05:48:07;;;;;;;16.58;4.63;;;768.20;1331.20;;;;;;5076199;28;20120;-67
2021/06/24 05:50:36;;;;;;;19.58;5.38;;;768.40;1331.20;;;;;;5076185;28;20104;-65
2021/06/24 05:53:01;;;;;;;17.67;5.38;;;768.50;1331.20;;;;;;5075883;28;20027;-62
2021/06/24 05:58:13;;;;;;;24.25;6.00;;;793.60;1331.20;;;;;;5075953;28;20388;-62
2021/06/24 06:00:39;;;;;;;24.55;5.65;;;793.70;1331.20;;;;;;5075937;28;20025;-67
2021/06/24 06:03:05;;;;;;;29.45;6.07;;;793.80;1305.60;;;;;;5075983;28;20028;-67
2021/06/24 06:05:34;;;;;;;21.48;5.75;;;794.00;1305.60;;;;;;5075779;28;20370;-66
2021/06/24 06:08:05;;;;;;;27.30;5.95;;;794.10;1305.60;;;;;;5075884;28;20374;-67
2021/06/24 06:10:31;;;;;;;20.80;5.97;;;794.30;1280.00;;;;;;5075476;28;20024;-62
2021/06/24 06:12:57;;;;;;;25.70;6.25;;;794.40;1280.00;;;;;;5075668;28;20491;-64
2021/06/24 06:15:23;;;;;;;24.98;6.90;;;819.20;1254.40;;;;;;5075674;28;20116;-62
2021/06/24 06:17:49;;;;;;;23.00;5.88;;;819.30;1254.40;;;;;;5075604;28;20029;-62
2021/06/24 06:20:15;;;;;;;18.80;6.63;;;819.40;1254.40;;;;;;5075371;28;20025;-66
2021/06/24 06:22:41;;;;;;;20.55;8.90;;;819.50;1228.80;;;;;;5075161;28;20063;-62
2021/06/24 06:25:07;;;;;;;32.28;8.73;;;819.70;1203.20;;;;;;5074811;28;20021;-62
2021/06/24 06:27:33;;;;;;;26.58;7.80;;;819.90;1203.20;;;;;;5075268;28;20124;-63
2021/06/24 06:29:59;;;;;;;29.30;7.55;;;820.10;1203.20;;;;;;5074479;28;20051;-66
2021/06/24 06:32:24;;;;;;;23.23;7.28;;;844.90;1203.20;;;;;;5074887;28;20085;-62
2021/06/24 06:34:51;;;;;;;21.63;6.70;;;845.10;1203.20;;;;;;5074622;28;20036;-63
2021/06/24 06:37:17;;;;;;;18.65;6.18;;;845.30;1177.60;;;;;;5074405;28;20542;-67
2021/06/24 06:39:42;;;;;;;22.45;5.82;;;845.50;1177.60;;;;;;5074126;28;20020;-63
2021/06/24 06:42:08;;;;;;;29.25;7.22;;;870.40;1152.00;;;;;;5074560;28;20595;-62
2021/06/24 06:44:35;;;;;;;33.20;6.15;;;870.60;1152.00;;;;;;5074501;28;20493;-64
2021/06/24 06:47:01;;;;;;;28.88;5.85;;;870.80;1126.40;;;;;;5074271;28;20039;-63
2021/06/24 06:49:27;;;;;;;25.25;6.45;;;870.90;1152.00;;;;;;5074401;28;20025;-63
2021/06/24 06:51:53;;;;;;;18.88;5.38;;;871.00;1152.00;;;;;;5074253;28;20386;-66
2021/06/24 06:54:18;;;;;;;23.30;6.28;;;871.20;1126.40;;;;;;5074345;28;20028;-63
2021/06/24 06:56:47;;;;;;;25.30;5.70;;;871.30;1100.80;;;;;;5073665;28;20047;-64
2021/06/24 06:59:13;;;;;;;27.00;6.97;;;896.00;1100.80;;;;;;5074082;28;20023;-67
2021/06/24 07:01:40;;;;;;;21.20;5.47;;;896.00;1100.80;;;;;;5074100;28;20078;-62
2021/06/24 07:04:06;;;;;;;20.25;6.25;;;896.00;1100.80;;;;;;5074282;28;20028;-63
2021/06/24 07:06:32;;;;;;;22.55;6.53;;;896.20;1100.80;;;;;;5073896;28;20032;-67
2021/06/24 07:08:58;;;;;;;30.73;6.55;;;896.50;1075.20;;;;;;5074034;28;20466;-68
2021/06/24 07:11:25;;;;;;;23.42;5.72;;;896.80;1049.60;;;;;;5074212;28;20035;-62
2021/06/24 07:13:51;;;;;;;23.92;7.45;;;921.60;1075.20;;;;;;5073847;28;20099;-64
2021/06/24 07:16:17;;;;;;;20.23;5.28;;;921.80;1075.20;;;;;;5074070;28;20032;-63
2021/06/24 07:18:44;;;;;;;24.42;5.82;;;921.90;1075.20;;;;;;5073666;28;20021;-63
2021/06/24 07:21:09;;;;;;;29.02;6.57;;;921.90;1075.20;;;;;;5073566;28;20097;-66
2021/06/24 07:23:36;;;;;;;16.77;5.03;;;922.00;1075.20;;;;;;5071059;28;20466;-63
2021/06/24 07:26:02;;;;;;;30.05;6.93;;;922.10;1049.60;;;;;;5073573;28;20115;-66
2021/06/24 07:28:28;;;;;;;22.13;6.10;;;922.40;1049.60;;;;;;5073437;28;20028;-62
2021/06/24 07:30:55;;;;;;;33.08;6.70;;;947.20;1049.60;;;;;;5073389;28;20050;-66
2021/06/24 07:33:21;;;;;;;27.52;7.03;;;947.70;1024.00;;;;;;5073700;28;20016;-63
2021/06/24 07:35:46;;;;;;;29.77;6.32;;;947.80;998.40;;;;;;5074186;28;20020;-63
2021/06/24 07:38:12;;;;;;;31.23;6.20;;;948.00;998.40;;;;;;5073568;28;20407;-67
2021/06/24 07:40:40;;;;;;;31.77;6.32;;;972.80;998.40;;;;;;5073795;28;20016;-63
2021/06/24 07:43:06;;;;;;;21.85;6.40;;;973.00;998.40;;;;;;5074225;28;20082;-68
2021/06/24 07:45:32;;;;;;;25.58;5.68;;;973.30;947.20;;;;;;5073576;28;20078;-62
2021/06/24 07:47:58;;;;;;;26.83;7.30;;;973.30;947.20;;;;;;5073997;28;20032;-64
2021/06/24 07:50:24;;;;;;;27.35;7.07;;;973.20;947.20;;;;;;5073741;28;20099;-61
2021/06/24 07:52:50;;;;;;;23.42;6.63;;;972.90;947.20;;;;;;5073544;28;20052;-62
2021/06/24 07:55:16;;;;;;;52.13;7.78;;;972.80;947.20;;;;;;5073601;28;20017;-64
2021/06/24 07:57:43;;;;;;;46.70;8.18;;;972.90;947.20;;;;;;5073905;28;20028;-64
2021/06/24 08:00:09;;;;;;;38.70;7.75;;;973.20;947.20;;;;;;5073525;28;20046;-62
2021/06/24 08:02:36;;;;;;;52.38;9.65;;;973.30;921.60;;;;;;5073871;28;20424;-67
2021/06/24 08:05:03;;;;;;;34.05;9.45;;;973.30;921.60;;;;;;5073356;28;20028;-62
2021/06/24 08:07:29;;;;;;;28.90;9.00;;;973.40;921.60;;;;;;5073403;28;20089;-62
2021/06/24 08:09:57;;;;;;;34.13;8.65;;;973.40;921.60;;;;;;5072179;28;20033;-63
2021/06/24 08:12:23;;;;;;;36.95;8.30;;;973.40;921.60;;;;;;5073816;28;20033;-63
2021/06/24 08:14:48;;;;;;;27.77;8.68;;;973.30;921.60;;;;;;5073590;28;20485;-63
2021/06/24 08:17:14;;;;;;;35.47;9.02;;;973.20;921.60;;;;;;5073633;28;20107;-63
2021/06/24 08:19:40;;;;;;;34.85;8.57;;;973.10;947.20;;;;;;5073568;28;20103;-63
2021/06/24 08:22:06;;;;;;;38.28;9.55;;;972.80;947.20;;;;;;5073279;28;20049;-63
2021/06/24 08:24:31;;;;;;;28.83;8.35;;;947.90;947.20;;;;;;5073681;28;20036;-63
2021/06/24 08:26:57;;;;;;;31.00;9.35;;;947.90;947.20;;;;;;5073363;28;20044;-62
2021/06/24 08:29:23;;;;;;;30.85;7.65;;;947.80;947.20;;;;;;5073739;28;20020;-62
2021/06/24 08:31:49;;;;;;;32.60;8.77;;;947.90;972.80;;;;;;5073588;28;20035;-62
2021/06/24 08:34:15;;;;;;;41.90;8.30;;;972.90;972.80;;;;;;5073408;28;20474;-63
2021/06/24 08:36:41;;;;;;;31.80;8.38;;;973.30;921.60;;;;;;5073282;28;20109;-62
2021/06/24 08:39:06;;;;;;;36.20;9.68;;;973.40;921.60;;;;;;5073117;28;20031;-63
2021/06/24 08:41:32;;;;;;;34.05;8.95;;;973.60;921.60;;;;;;5073107;28;20103;-63
2021/06/24 08:43:58;;;;;;;41.60;9.85;;;998.50;921.60;;;;;;5073230;28;20048;-62
2021/06/24 08:46:26;;;;;;;34.00;9.77;;;998.70;921.60;;;;;;5088423;28;20059;-63
2021/06/24 08:48:53;;;;;;;28.98;8.60;;;998.90;896.00;;;;;;5073284;28;20021;-63
2021/06/24 08:51:19;;;;;;;42.60;10.07;;;999.00;896.00;;;;;;5073222;28;20452;-63
2021/06/24 08:53:47;;;;;;;34.97;10.18;;;999.30;896.00;;;;;;5073311;28;20047;-63
2021/06/24 08:56:15;;;;;;;27.02;10.45;;;1024.00;896.00;;;;;;5073004;28;20466;-62
2021/06/24 08:58:40;;;;;;;31.08;12.15;;;1024.10;870.40;;;;;;5072958;28;20029;-64
2021/06/24 09:01:06;;;;;;;31.70;11.07;;;1024.30;870.40;;;;;;5073117;28;20070;-67
2021/06/24 09:03:32;;;;;;;51.83;13.52;;;1024.40;870.40;;;;;;5074143;28;20355;-65
2021/06/24 09:06:09;;;;;;;44.33;12.65;;;1024.50;870.40;;;;;;5075366;28;20051;-63
2021/06/24 09:08:40;;;;;;;41.63;12.40;;;1024.60;844.80;;;;;;5073789;28;20078;-63
2021/06/24 09:11:24;;;;;;;37.03;11.40;;;1024.70;870.40;;;;;;5075298;28;20021;-63
2021/06/24 09:14:05;;;;;;;32.22;10.80;;;1024.80;844.80;;;;;;5073428;28;20036;-63
2021/06/24 09:16:40;;;;;;;30.17;11.15;;;1049.60;896.00;;;;;;5074274;28;20789;-64
2021/06/24 09:19:26;;;;;;;34.63;11.65;;;1049.70;870.40;;;;;;5073438;28;20031;-62
2021/06/24 09:21:59;;;;;;;38.38;11.65;;;1049.80;870.40;;;;;;5089505;28;20088;-62
2021/06/24 09:24:26;;;;;;;28.23;11.65;;;1050.00;870.40;;;;;;5073290;28;20466;-62
2021/06/24 09:26:52;;;;;;;38.30;11.05;;;1050.00;870.40;;;;;;5074860;28;20474;-64
2021/06/24 09:29:18;;;;;;;29.25;10.65;;;1050.10;870.40;;;;;;5075705;28;20171;-63
2021/06/24 09:31:48;;;;;;;30.73;11.05;;;1050.10;870.40;;;;;;5075190;28;20028;-62
2021/06/24 09:34:15;;;;;;;38.92;11.18;;;1050.20;844.80;;;;;;5074948;28;20066;-63
2021/06/24 09:36:44;;;;;;;35.80;11.68;;;1050.40;844.80;;;;;;5074660;28;20466;-66
2021/06/24 09:39:24;;;;;;;36.63;11.57;;;1050.50;844.80;;;;;;5072963;28;20036;-62
2021/06/24 09:42:03;;;;;;;37.70;10.75;;;1050.50;844.80;;;;;;5076167;28;20024;-63
2021/06/24 09:44:30;;;;;;;33.60;10.15;;;1050.50;844.80;;;;;;5075579;28;20462;-63
2021/06/24 09:46:57;;;;;;;30.63;10.77;;;1075.20;844.80;;;;;;5076127;28;20044;-63
2021/06/24 09:49:31;;;;;;;37.60;11.45;;;1075.30;844.80;;;;;;5076049;28;20137;-64
2021/06/24 09:51:58;;;;;;;32.03;11.88;;;1075.30;844.80;;;;;;5088996;28;20316;-65
2021/06/24 09:54:45;;;;;;;37.50;11.23;;;1075.50;819.20;;;;;;5074505;28;20023;-64
2021/06/24 09:57:24;;;;;;;40.20;10.30;;;1075.60;819.20;;;;;;5074268;28;20021;-68
2021/06/24 09:59:51;;;;;;;36.47;10.18;;;1075.60;819.20;;;;;;5074685;28;20381;-64
2021/06/24 10:02:19;;;;;;;29.75;11.38;;;1075.70;819.20;;;;;;5074487;28;20405;-64
2021/06/24 10:04:45;;;;;;;32.13;10.07;;;1075.70;819.20;;;;;;5074275;28;20024;-66
2021/06/24 10:07:14;;;;;;;31.73;10.70;;;1075.80;793.60;;;;;;5074202;28;20480;-69
2021/06/24 10:09:42;;;;;;;32.88;10.70;;;1075.90;793.60;;;;;;5074164;28;20029;-70
2021/06/24 10:12:10;;;;;;;51.92;13.85;;;1076.00;793.60;;;;;;5074303;28;20029;-64
2021/06/24 10:14:38;;;;;;;40.83;14.82;;;1076.00;768.00;;;;;;5073067;28;20044;-67
2021/06/24 10:17:05;;;;;;;45.03;13.20;;;1076.00;768.00;;;;;;5074049;28;20052;-68
2021/06/24 10:19:34;;;;;;;43.72;12.35;;;1100.80;793.60;;;;;;5073702;28;20543;-70
2021/06/24 10:22:03;;;;;;;34.90;11.07;;;1100.80;793.60;;;;;;5073753;28;20045;-71
2021/06/24 10:24:33;;;;;;;35.35;10.68;;;1100.80;793.60;;;;;;5073839;28;20085;-71
2021/06/24 10:27:05;;;;;;;37.45;11.45;;;1100.90;793.60;;;;;;5073852;28;20043;-64
2021/06/24 10:29:43;;;;;;;30.33;10.45;;;1101.10;793.60;;;;;;5072078;28;20048;-69
2021/06/24 10:32:25;;;;;;;29.08;10.55;;;1101.10;793.60;;;;;;5071642;28;20036;-64
2021/06/24 10:34:52;;;;;;;28.03;10.20;;;1101.20;793.60;;;;;;5071834;28;20082;-65
2021/06/24 10:37:22;;;;;;;31.13;10.02;;;1101.30;768.00;;;;;;5073636;28;20419;-64
2021/06/24 10:39:49;;;;;;;28.08;9.13;;;1101.20;793.60;;;;;;5073712;28;20466;-69
2021/06/24 10:42:16;;;;;;;22.48;9.20;;;1101.40;768.00;;;;;;5073465;28;20077;-65
2021/06/24 10:44:42;;;;;;;27.77;10.18;;;1101.30;768.00;;;;;;5073666;28;20020;-65
2021/06/24 10:47:08;;;;;;;33.97;10.27;;;1101.40;742.40;;;;;;5073307;28;20047;-64
2021/06/24 10:49:34;;;;;;;30.90;9.75;;;1101.40;742.40;;;;;;5073554;28;20024;-69
2021/06/24 10:52:36;;;;;;;26.67;10.38;;;1101.50;742.40;;;;;;5073271;28;20040;-64
2021/06/24 10:55:02;;;;;;;35.50;9.90;;;1101.50;742.40;;;;;;5031223;28;20068;-70
2021/06/24 10:57:38;;;;;;;28.50;8.93;;;1101.50;742.40;;;;;;5030840;28;20491;-67
2021/06/24 11:00:34;;;;;;;28.27;8.63;;;1101.50;742.40;;;;;;5031249;28;20108;-64
2021/06/24 11:03:02;;;;;;;32.33;10.57;;;1101.60;742.40;;;;;;5031501;28;20033;-67
2021/06/24 11:05:44;;;;;;;31.52;9.68;;;1101.70;716.80;;;;;;5032544;28;20038;-69
2021/06/24 11:08:12;;;;;;;31.83;8.77;;;1101.70;716.80;;;;;;5032513;28;20411;-68
2021/06/24 11:10:58;;;;;;;37.00;9.40;;;1101.70;716.80;;;;;;5032466;28;20444;-68
2021/06/24 11:13:39;;;;;;;37.72;9.52;;;1101.70;716.80;;;;;;5032402;28;20106;-71
2021/06/24 11:16:15;;;;;;;24.35;8.90;;;1101.70;691.20;;;;;;5030635;28;20096;-72
2021/06/24 11:18:40;;;;;;;29.67;9.75;;;1101.70;716.80;;;;;;5030754;28;20022;-66
2021/06/24 11:21:28;;;;;;;32.95;9.73;;;1101.70;691.20;;;;;;5030629;28;20021;-67
2021/06/24 11:24:15;;;;;;;30.35;8.80;;;1101.70;691.20;;;;;;5028626;28;20021;-64
2021/06/24 11:26:44;;;;;;;31.45;8.93;;;1101.70;691.20;;;;;;5029259;28;20037;-64
2021/06/24 11:29:46;;;;;;;34.38;9.88;;;1126.40;716.80;;;;;;5051799;28;20028;-64
2021/06/24 11:32:12;;;;;;;28.77;9.07;;;1126.40;716.80;;;;;;5071659;28;20062;-64
2021/06/24 11:37:15;;;;;;;36.13;8.93;;;1126.40;716.80;;;;;;5072651;28;20070;-64
2021/06/24 11:39:42;;;;;;;;;;;1126.50;716.80;;;;;;5072464;28;20442;-64
2021/06/24 11:42:21;;;;;;;39.38;10.07;;;1126.40;742.40;;;;;;5072684;28;19904;-66
2021/06/24 11:44:49;;;;;;;503.10;53.95;;;1126.40;742.40;;;;;;5070266;28;20473;-70
2021/06/24 11:47:24;;;;;;;1498.65;171.35;;;1126.40;742.40;;;;;;5072379;28;20093;-66
2021/06/24 12:04:14;;;;;;;68.80;12.75;;;1126.60;716.80;;;;;;5067534;28;20386;-66
2021/06/24 12:06:56;;;;;;;65.85;13.05;;;1126.50;742.40;;;;;;5067532;28;20067;-66
2021/06/24 12:09:24;;;;;;;59.92;12.23;;;1126.50;768.00;;;;;;5070164;28;20393;-67
2021/06/24 12:11:57;;;;;;;37.95;10.93;;;1126.50;768.00;;;;;;5067423;28;20032;-65
2021/06/24 12:14:23;;;;;;;40.10;10.57;;;1126.50;768.00;;;;;;5070139;28;20082;-67
2021/06/24 12:17:13;;;;;;;39.50;11.52;;;1126.50;768.00;;;;;;5071673;28;20033;-65
2021/06/24 12:19:57;;;;;;;36.15;11.18;;;1126.50;768.00;;;;;;5071566;28;20057;-65
2021/06/24 12:22:24;;;;;;;48.88;10.88;;;1126.50;768.00;;;;;;5071311;28;20045;-66
2021/06/24 12:24:51;;;;;;;43.38;11.60;;;1126.40;793.60;;;;;;5070576;28;20048;-65
2021/06/24 12:27:18;;;;;;;33.72;10.93;;;1126.40;768.00;;;;;;5069746;28;20041;-66
2021/06/24 12:29:45;;;;;;;28.75;10.43;;;1101.70;742.40;;;;;;5069900;28;20012;-67
2021/06/24 12:32:10;;;;;;;33.38;9.80;;;1126.40;742.40;;;;;;5070695;28;20068;-66